sensor_id;sensor_type;location;lat;lon;timestamp;P1;durP1;ratioP1;P2;durP2;ratioP2
10244;SDS011;5167;52.164;10.530;2023-05-10T00:01:52;4.32;;;3.80;;
10244;SDS011;5167;52.164;10.530;2023-05-10T00:04:17;5.30;;;4.05;;
10244;SDS011;5167;52.164;10.530;2023-05-10T00:06:43;6.45;;;3.90;;
10244;SDS011;5167;52.164;10.530;2023-05-10T00:09:08;7.75;;;4.25;;
10244;SDS011;5167;52.164;10.530;2023-05-10T00:11:34;6.53;;;4.13;;
10244;SDS011;5167;52.164;10.530;2023-05-10T00:13:59;5.95;;;4.00;;
10244;SDS011;5167;52.164;10.530;2023-05-10T00:16:25;5.07;;;4.13;;
10244;SDS011;5167;52.164;10.530;2023-05-10T00:18:50;8.63;;;4.38;;
10244;SDS011;5167;52.164;10.530;2023-05-10T00:21:16;6.05;;;4.57;;
10244;SDS011;5167;52.164;10.530;2023-05-10T00:23:41;5.35;;;4.35;;
10244;SDS011;5167;52.164;10.530;2023-05-10T00:26:07;6.13;;;4.80;;
10244;SDS011;5167;52.164;10.530;2023-05-10T00:28:32;5.45;;;4.18;;
10244;SDS011;5167;52.164;10.530;2023-05-10T00:30:57;5.97;;;4.43;;
10244;SDS011;5167;52.164;10.530;2023-05-10T00:33:23;6.68;;;4.80;;
10244;SDS011;5167;52.164;10.530;2023-05-10T00:35:48;4.88;;;4.15;;
10244;SDS011;5167;52.164;10.530;2023-05-10T00:38:14;8.60;;;4.80;;
10244;SDS011;5167;52.164;10.530;2023-05-10T00:40:39;11.23;;;4.50;;
10244;SDS011;5167;52.164;10.530;2023-05-10T00:43:05;6.95;;;4.70;;
10244;SDS011;5167;52.164;10.530;2023-05-10T00:45:31;5.68;;;4.00;;
10244;SDS011;5167;52.164;10.530;2023-05-10T00:47:58;5.38;;;4.38;;
10244;SDS011;5167;52.164;10.530;2023-05-10T00:50:25;6.15;;;4.57;;
10244;SDS011;5167;52.164;10.530;2023-05-10T00:52:51;7.82;;;4.93;;
10244;SDS011;5167;52.164;10.530;2023-05-10T00:55:17;6.88;;;5.13;;
10244;SDS011;5167;52.164;10.530;2023-05-10T00:57:43;7.60;;;4.88;;
10244;SDS011;5167;52.164;10.530;2023-05-10T01:00:09;4.85;;;4.20;;
10244;SDS011;5167;52.164;10.530;2023-05-10T01:02:36;7.13;;;4.43;;
10244;SDS011;5167;52.164;10.530;2023-05-10T01:05:01;9.98;;;4.38;;
10244;SDS011;5167;52.164;10.530;2023-05-10T01:39:46;5.60;;;4.53;;
10244;SDS011;5167;52.164;10.530;2023-05-10T01:42:21;6.72;;;4.70;;
10244;SDS011;5167;52.164;10.530;2023-05-10T01:45:07;6.20;;;4.50;;
10244;SDS011;5167;52.164;10.530;2023-05-10T01:48:06;7.07;;;5.05;;
10244;SDS011;5167;52.164;10.530;2023-05-10T01:50:35;7.25;;;4.60;;
10244;SDS011;5167;52.164;10.530;2023-05-10T01:53:03;5.30;;;4.22;;
10244;SDS011;5167;52.164;10.530;2023-05-10T01:55:32;9.35;;;4.97;;
10244;SDS011;5167;52.164;10.530;2023-05-10T01:58:03;5.38;;;4.60;;
10244;SDS011;5167;52.164;10.530;2023-05-10T02:00:34;6.18;;;4.70;;
10244;SDS011;5167;52.164;10.530;2023-05-10T02:03:01;6.85;;;5.22;;
10244;SDS011;5167;52.164;10.530;2023-05-10T02:05:30;5.53;;;4.65;;
10244;SDS011;5167;52.164;10.530;2023-05-10T02:07:58;7.30;;;4.32;;
10244;SDS011;5167;52.164;10.530;2023-05-10T02:10:26;6.07;;;4.93;;
10244;SDS011;5167;52.164;10.530;2023-05-10T02:12:53;8.05;;;4.85;;
10244;SDS011;5167;52.164;10.530;2023-05-10T02:15:23;5.20;;;4.22;;
10244;SDS011;5167;52.164;10.530;2023-05-10T02:17:51;7.85;;;4.88;;
10244;SDS011;5167;52.164;10.530;2023-05-10T02:20:19;7.05;;;4.32;;
10244;SDS011;5167;52.164;10.530;2023-05-10T02:22:46;7.78;;;5.15;;
10244;SDS011;5167;52.164;10.530;2023-05-10T02:25:14;7.05;;;4.85;;
10244;SDS011;5167;52.164;10.530;2023-05-10T02:27:41;6.30;;;4.68;;
10244;SDS011;5167;52.164;10.530;2023-05-10T02:30:09;6.60;;;4.95;;
10244;SDS011;5167;52.164;10.530;2023-05-10T02:32:35;6.15;;;4.53;;
10244;SDS011;5167;52.164;10.530;2023-05-10T02:35:02;7.05;;;4.78;;
10244;SDS011;5167;52.164;10.530;2023-05-10T02:37:29;6.97;;;4.65;;
10244;SDS011;5167;52.164;10.530;2023-05-10T02:39:55;8.43;;;4.60;;
10244;SDS011;5167;52.164;10.530;2023-05-10T02:42:23;7.20;;;4.65;;
10244;SDS011;5167;52.164;10.530;2023-05-10T02:44:55;9.57;;;5.20;;
10244;SDS011;5167;52.164;10.530;2023-05-10T02:47:28;5.80;;;4.65;;
10244;SDS011;5167;52.164;10.530;2023-05-10T02:49:54;6.43;;;4.68;;
10244;SDS011;5167;52.164;10.530;2023-05-10T02:52:21;4.95;;;4.28;;
10244;SDS011;5167;52.164;10.530;2023-05-10T02:54:54;8.38;;;4.55;;
10244;SDS011;5167;52.164;10.530;2023-05-10T02:57:24;6.53;;;5.00;;
10244;SDS011;5167;52.164;10.530;2023-05-10T02:59:52;7.18;;;4.75;;
10244;SDS011;5167;52.164;10.530;2023-05-10T03:02:18;7.55;;;4.80;;
10244;SDS011;5167;52.164;10.530;2023-05-10T03:04:44;10.70;;;5.10;;
10244;SDS011;5167;52.164;10.530;2023-05-10T03:07:10;5.72;;;4.70;;
10244;SDS011;5167;52.164;10.530;2023-05-10T03:09:36;6.93;;;4.93;;
10244;SDS011;5167;52.164;10.530;2023-05-10T03:12:11;7.30;;;5.20;;
10244;SDS011;5167;52.164;10.530;2023-05-10T03:14:57;6.28;;;4.72;;
10244;SDS011;5167;52.164;10.530;2023-05-10T03:17:52;6.05;;;4.75;;
10244;SDS011;5167;52.164;10.530;2023-05-10T03:20:25;7.55;;;4.72;;
10244;SDS011;5167;52.164;10.530;2023-05-10T03:23:00;8.07;;;4.63;;
10244;SDS011;5167;52.164;10.530;2023-05-10T03:25:37;7.45;;;4.63;;
10244;SDS011;5167;52.164;10.530;2023-05-10T03:28:04;12.55;;;5.30;;
10244;SDS011;5167;52.164;10.530;2023-05-10T03:30:31;7.70;;;4.72;;
10244;SDS011;5167;52.164;10.530;2023-05-10T03:32:57;8.57;;;5.00;;
10244;SDS011;5167;52.164;10.530;2023-05-10T03:35:22;8.73;;;5.18;;
10244;SDS011;5167;52.164;10.530;2023-05-10T03:37:48;9.38;;;5.05;;
10244;SDS011;5167;52.164;10.530;2023-05-10T03:40:14;8.05;;;4.70;;
10244;SDS011;5167;52.164;10.530;2023-05-10T03:42:40;6.38;;;5.22;;
10244;SDS011;5167;52.164;10.530;2023-05-10T03:45:06;9.07;;;4.95;;
10244;SDS011;5167;52.164;10.530;2023-05-10T03:47:32;8.80;;;5.13;;
10244;SDS011;5167;52.164;10.530;2023-05-10T03:49:57;7.22;;;4.80;;
10244;SDS011;5167;52.164;10.530;2023-05-10T03:52:23;7.43;;;5.18;;
10244;SDS011;5167;52.164;10.530;2023-05-10T03:54:48;5.72;;;4.55;;
10244;SDS011;5167;52.164;10.530;2023-05-10T03:57:14;6.03;;;4.75;;
10244;SDS011;5167;52.164;10.530;2023-05-10T03:59:39;9.25;;;5.30;;
10244;SDS011;5167;52.164;10.530;2023-05-10T04:02:05;8.35;;;5.00;;
10244;SDS011;5167;52.164;10.530;2023-05-10T04:04:30;7.22;;;5.85;;
10244;SDS011;5167;52.164;10.530;2023-05-10T04:06:56;6.47;;;4.95;;
10244;SDS011;5167;52.164;10.530;2023-05-10T04:09:21;8.02;;;5.75;;
10244;SDS011;5167;52.164;10.530;2023-05-10T04:11:47;6.85;;;5.03;;
10244;SDS011;5167;52.164;10.530;2023-05-10T04:14:12;7.63;;;5.57;;
10244;SDS011;5167;52.164;10.530;2023-05-10T04:16:37;12.20;;;5.50;;
10244;SDS011;5167;52.164;10.530;2023-05-10T04:19:03;12.65;;;5.38;;
10244;SDS011;5167;52.164;10.530;2023-05-10T04:21:29;8.77;;;5.60;;
10244;SDS011;5167;52.164;10.530;2023-05-10T04:23:55;7.90;;;5.32;;
10244;SDS011;5167;52.164;10.530;2023-05-10T04:26:20;5.63;;;4.72;;
10244;SDS011;5167;52.164;10.530;2023-05-10T04:28:46;10.07;;;5.47;;
10244;SDS011;5167;52.164;10.530;2023-05-10T04:31:12;8.93;;;5.78;;
10244;SDS011;5167;52.164;10.530;2023-05-10T04:33:37;8.18;;;5.68;;
10244;SDS011;5167;52.164;10.530;2023-05-10T04:36:03;10.15;;;6.03;;
10244;SDS011;5167;52.164;10.530;2023-05-10T04:38:29;8.57;;;5.00;;
10244;SDS011;5167;52.164;10.530;2023-05-10T04:41:03;7.47;;;5.68;;
10244;SDS011;5167;52.164;10.530;2023-05-10T04:43:30;8.30;;;5.28;;
10244;SDS011;5167;52.164;10.530;2023-05-10T04:45:58;9.55;;;5.78;;
10244;SDS011;5167;52.164;10.530;2023-05-10T04:48:24;8.07;;;5.90;;
10244;SDS011;5167;52.164;10.530;2023-05-10T04:50:49;7.95;;;5.35;;
10244;SDS011;5167;52.164;10.530;2023-05-10T04:53:15;7.32;;;5.32;;
10244;SDS011;5167;52.164;10.530;2023-05-10T04:55:40;5.78;;;4.88;;
10244;SDS011;5167;52.164;10.530;2023-05-10T04:58:06;7.30;;;4.97;;
10244;SDS011;5167;52.164;10.530;2023-05-10T05:00:32;8.75;;;5.53;;
10244;SDS011;5167;52.164;10.530;2023-05-10T05:02:58;6.45;;;5.60;;
10244;SDS011;5167;52.164;10.530;2023-05-10T05:05:24;7.05;;;5.30;;
10244;SDS011;5167;52.164;10.530;2023-05-10T05:07:49;11.18;;;5.40;;
10244;SDS011;5167;52.164;10.530;2023-05-10T05:10:15;11.18;;;5.70;;
10244;SDS011;5167;52.164;10.530;2023-05-10T05:12:40;6.93;;;5.45;;
10244;SDS011;5167;52.164;10.530;2023-05-10T05:15:06;10.88;;;5.75;;
10244;SDS011;5167;52.164;10.530;2023-05-10T05:17:34;7.40;;;5.65;;
10244;SDS011;5167;52.164;10.530;2023-05-10T05:19:59;8.57;;;5.72;;
10244;SDS011;5167;52.164;10.530;2023-05-10T05:22:25;7.50;;;5.22;;
10244;SDS011;5167;52.164;10.530;2023-05-10T05:24:55;8.90;;;6.07;;
10244;SDS011;5167;52.164;10.530;2023-05-10T05:27:23;7.93;;;5.50;;
10244;SDS011;5167;52.164;10.530;2023-05-10T05:29:52;8.65;;;5.70;;
10244;SDS011;5167;52.164;10.530;2023-05-10T05:32:18;6.72;;;5.68;;
10244;SDS011;5167;52.164;10.530;2023-05-10T05:34:44;9.00;;;6.25;;
10244;SDS011;5167;52.164;10.530;2023-05-10T05:37:16;9.18;;;6.03;;
10244;SDS011;5167;52.164;10.530;2023-05-10T05:39:44;12.30;;;6.47;;
10244;SDS011;5167;52.164;10.530;2023-05-10T05:42:10;10.15;;;5.85;;
10244;SDS011;5167;52.164;10.530;2023-05-10T05:44:36;9.27;;;5.80;;
10244;SDS011;5167;52.164;10.530;2023-05-10T05:47:02;10.70;;;5.80;;
10244;SDS011;5167;52.164;10.530;2023-05-10T05:49:28;14.50;;;7.10;;
10244;SDS011;5167;52.164;10.530;2023-05-10T05:51:53;10.77;;;5.70;;
10244;SDS011;5167;52.164;10.530;2023-05-10T05:54:19;10.85;;;6.38;;
10244;SDS011;5167;52.164;10.530;2023-05-10T05:56:45;13.25;;;6.95;;
10244;SDS011;5167;52.164;10.530;2023-05-10T05:59:10;10.05;;;6.57;;
10244;SDS011;5167;52.164;10.530;2023-05-10T06:01:36;8.38;;;6.47;;
10244;SDS011;5167;52.164;10.530;2023-05-10T06:04:02;14.10;;;6.55;;
10244;SDS011;5167;52.164;10.530;2023-05-10T06:06:27;8.65;;;6.13;;
10244;SDS011;5167;52.164;10.530;2023-05-10T06:08:53;10.23;;;6.55;;
10244;SDS011;5167;52.164;10.530;2023-05-10T06:11:19;8.20;;;6.15;;
10244;SDS011;5167;52.164;10.530;2023-05-10T06:13:46;10.52;;;6.88;;
10244;SDS011;5167;52.164;10.530;2023-05-10T06:16:12;8.68;;;6.35;;
10244;SDS011;5167;52.164;10.530;2023-05-10T06:18:38;8.50;;;6.15;;
10244;SDS011;5167;52.164;10.530;2023-05-10T06:21:03;13.80;;;6.88;;
10244;SDS011;5167;52.164;10.530;2023-05-10T06:23:29;11.00;;;7.45;;
10244;SDS011;5167;52.164;10.530;2023-05-10T06:25:54;10.77;;;7.07;;
10244;SDS011;5167;52.164;10.530;2023-05-10T06:28:20;8.63;;;6.88;;
10244;SDS011;5167;52.164;10.530;2023-05-10T06:30:45;11.18;;;7.45;;
10244;SDS011;5167;52.164;10.530;2023-05-10T06:33:11;12.18;;;7.30;;
10244;SDS011;5167;52.164;10.530;2023-05-10T06:35:36;9.95;;;7.15;;
10244;SDS011;5167;52.164;10.530;2023-05-10T06:38:02;9.82;;;7.10;;
10244;SDS011;5167;52.164;10.530;2023-05-10T06:40:28;10.68;;;7.10;;
10244;SDS011;5167;52.164;10.530;2023-05-10T06:42:53;12.57;;;7.50;;
10244;SDS011;5167;52.164;10.530;2023-05-10T06:45:19;10.90;;;6.95;;
10244;SDS011;5167;52.164;10.530;2023-05-10T06:47:44;13.07;;;6.50;;
10244;SDS011;5167;52.164;10.530;2023-05-10T06:50:10;12.07;;;7.80;;
10244;SDS011;5167;52.164;10.530;2023-05-10T06:52:36;14.10;;;7.57;;
10244;SDS011;5167;52.164;10.530;2023-05-10T06:55:02;12.68;;;7.28;;
10244;SDS011;5167;52.164;10.530;2023-05-10T06:57:29;10.77;;;7.60;;
10244;SDS011;5167;52.164;10.530;2023-05-10T06:59:54;13.63;;;7.13;;
10244;SDS011;5167;52.164;10.530;2023-05-10T07:02:21;9.68;;;7.38;;
10244;SDS011;5167;52.164;10.530;2023-05-10T07:04:47;10.13;;;7.47;;
10244;SDS011;5167;52.164;10.530;2023-05-10T07:07:13;9.23;;;7.32;;
10244;SDS011;5167;52.164;10.530;2023-05-10T07:09:39;11.95;;;7.80;;
10244;SDS011;5167;52.164;10.530;2023-05-10T07:12:05;10.93;;;7.63;;
10244;SDS011;5167;52.164;10.530;2023-05-10T07:14:30;10.10;;;7.65;;
10244;SDS011;5167;52.164;10.530;2023-05-10T07:16:56;16.05;;;7.60;;
10244;SDS011;5167;52.164;10.530;2023-05-10T07:19:21;11.60;;;7.28;;
10244;SDS011;5167;52.164;10.530;2023-05-10T07:21:47;14.60;;;7.70;;
10244;SDS011;5167;52.164;10.530;2023-05-10T07:24:12;12.95;;;8.30;;
10244;SDS011;5167;52.164;10.530;2023-05-10T07:26:38;11.63;;;7.45;;
10244;SDS011;5167;52.164;10.530;2023-05-10T07:29:03;9.48;;;7.55;;
10244;SDS011;5167;52.164;10.530;2023-05-10T07:31:29;11.60;;;7.32;;
10244;SDS011;5167;52.164;10.530;2023-05-10T07:33:54;12.95;;;8.18;;
10244;SDS011;5167;52.164;10.530;2023-05-10T07:36:20;12.68;;;8.13;;
10244;SDS011;5167;52.164;10.530;2023-05-10T07:38:45;8.52;;;7.28;;
10244;SDS011;5167;52.164;10.530;2023-05-10T07:41:11;13.98;;;8.45;;
10244;SDS011;5167;52.164;10.530;2023-05-10T07:43:37;10.88;;;7.80;;
10244;SDS011;5167;52.164;10.530;2023-05-10T07:46:03;12.65;;;8.80;;
10244;SDS011;5167;52.164;10.530;2023-05-10T07:48:28;11.23;;;8.13;;
10244;SDS011;5167;52.164;10.530;2023-05-10T07:50:54;12.30;;;8.30;;
10244;SDS011;5167;52.164;10.530;2023-05-10T07:53:19;14.35;;;8.35;;
10244;SDS011;5167;52.164;10.530;2023-05-10T07:55:49;12.13;;;9.07;;
10244;SDS011;5167;52.164;10.530;2023-05-10T07:58:16;13.80;;;8.70;;
10244;SDS011;5167;52.164;10.530;2023-05-10T08:00:42;13.68;;;8.95;;
10244;SDS011;5167;52.164;10.530;2023-05-10T08:03:07;15.75;;;8.98;;
10244;SDS011;5167;52.164;10.530;2023-05-10T08:05:33;11.10;;;8.75;;
10244;SDS011;5167;52.164;10.530;2023-05-10T08:07:58;14.93;;;8.73;;
10244;SDS011;5167;52.164;10.530;2023-05-10T08:10:24;13.00;;;8.60;;
10244;SDS011;5167;52.164;10.530;2023-05-10T08:12:50;13.30;;;9.23;;
10244;SDS011;5167;52.164;10.530;2023-05-10T08:15:15;13.80;;;9.40;;
10244;SDS011;5167;52.164;10.530;2023-05-10T08:17:41;13.40;;;9.25;;
10244;SDS011;5167;52.164;10.530;2023-05-10T08:20:07;15.50;;;9.52;;
10244;SDS011;5167;52.164;10.530;2023-05-10T08:22:33;11.35;;;8.82;;
10244;SDS011;5167;52.164;10.530;2023-05-10T08:24:59;15.38;;;10.23;;
10244;SDS011;5167;52.164;10.530;2023-05-10T08:27:24;14.45;;;9.18;;
10244;SDS011;5167;52.164;10.530;2023-05-10T08:29:50;15.18;;;9.63;;
10244;SDS011;5167;52.164;10.530;2023-05-10T08:32:15;15.95;;;9.65;;
10244;SDS011;5167;52.164;10.530;2023-05-10T08:34:41;14.30;;;9.63;;
10244;SDS011;5167;52.164;10.530;2023-05-10T08:37:07;14.60;;;9.30;;
10244;SDS011;5167;52.164;10.530;2023-05-10T08:39:36;14.15;;;9.32;;
10244;SDS011;5167;52.164;10.530;2023-05-10T08:42:01;14.75;;;9.93;;
10244;SDS011;5167;52.164;10.530;2023-05-10T08:44:30;12.48;;;8.75;;
10244;SDS011;5167;52.164;10.530;2023-05-10T08:46:57;12.50;;;9.23;;
10244;SDS011;5167;52.164;10.530;2023-05-10T08:49:24;18.38;;;10.60;;
10244;SDS011;5167;52.164;10.530;2023-05-10T08:51:53;16.35;;;9.32;;
10244;SDS011;5167;52.164;10.530;2023-05-10T08:54:20;14.02;;;9.48;;
10244;SDS011;5167;52.164;10.530;2023-05-10T08:56:46;12.45;;;9.60;;
10244;SDS011;5167;52.164;10.530;2023-05-10T08:59:12;14.60;;;9.48;;
10244;SDS011;5167;52.164;10.530;2023-05-10T09:01:38;14.20;;;9.95;;
10244;SDS011;5167;52.164;10.530;2023-05-10T09:04:05;13.85;;;9.98;;
10244;SDS011;5167;52.164;10.530;2023-05-10T09:06:30;12.85;;;9.02;;
10244;SDS011;5167;52.164;10.530;2023-05-10T09:08:57;15.48;;;10.05;;
10244;SDS011;5167;52.164;10.530;2023-05-10T09:11:23;15.30;;;10.25;;
10244;SDS011;5167;52.164;10.530;2023-05-10T09:13:49;13.52;;;9.48;;
10244;SDS011;5167;52.164;10.530;2023-05-10T09:16:17;16.50;;;9.90;;
10244;SDS011;5167;52.164;10.530;2023-05-10T09:18:42;12.57;;;9.82;;
10244;SDS011;5167;52.164;10.530;2023-05-10T09:21:08;13.70;;;9.73;;
10244;SDS011;5167;52.164;10.530;2023-05-10T09:23:35;18.17;;;10.60;;
10244;SDS011;5167;52.164;10.530;2023-05-10T09:26:06;14.15;;;9.63;;
10244;SDS011;5167;52.164;10.530;2023-05-10T09:28:33;13.93;;;10.27;;
10244;SDS011;5167;52.164;10.530;2023-05-10T09:30:59;15.27;;;10.35;;
10244;SDS011;5167;52.164;10.530;2023-05-10T09:33:25;14.02;;;9.82;;
10244;SDS011;5167;52.164;10.530;2023-05-10T09:35:51;14.10;;;9.85;;
10244;SDS011;5167;52.164;10.530;2023-05-10T09:38:17;12.85;;;8.65;;
10244;SDS011;5167;52.164;10.530;2023-05-10T09:40:43;11.15;;;8.05;;
10244;SDS011;5167;52.164;10.530;2023-05-10T09:43:19;7.70;;;5.65;;
10244;SDS011;5167;52.164;10.530;2023-05-10T09:45:45;7.95;;;5.70;;
10244;SDS011;5167;52.164;10.530;2023-05-10T09:48:14;7.05;;;4.70;;
10244;SDS011;5167;52.164;10.530;2023-05-10T09:50:40;5.97;;;4.32;;
10244;SDS011;5167;52.164;10.530;2023-05-10T09:53:06;6.40;;;4.53;;
10244;SDS011;5167;52.164;10.530;2023-05-10T09:55:39;4.47;;;3.83;;
10244;SDS011;5167;52.164;10.530;2023-05-10T09:58:05;5.97;;;3.90;;
10244;SDS011;5167;52.164;10.530;2023-05-10T10:00:35;4.40;;;3.45;;
10244;SDS011;5167;52.164;10.530;2023-05-10T10:03:03;4.35;;;3.47;;
10244;SDS011;5167;52.164;10.530;2023-05-10T10:05:32;5.32;;;4.35;;
10244;SDS011;5167;52.164;10.530;2023-05-10T10:08:00;5.50;;;4.03;;
10244;SDS011;5167;52.164;10.530;2023-05-10T10:10:29;5.90;;;3.50;;
10244;SDS011;5167;52.164;10.530;2023-05-10T10:12:56;3.03;;;2.70;;
10244;SDS011;5167;52.164;10.530;2023-05-10T10:15:23;8.27;;;2.10;;
10244;SDS011;5167;52.164;10.530;2023-05-10T10:17:49;3.53;;;1.80;;
10244;SDS011;5167;52.164;10.530;2023-05-10T10:20:15;2.60;;;1.70;;
10244;SDS011;5167;52.164;10.530;2023-05-10T10:22:42;2.72;;;1.73;;
10244;SDS011;5167;52.164;10.530;2023-05-10T10:25:13;4.43;;;1.85;;
10244;SDS011;5167;52.164;10.530;2023-05-10T10:35:58;2.83;;;1.60;;
10244;SDS011;5167;52.164;10.530;2023-05-10T10:38:25;1.80;;;1.38;;
10244;SDS011;5167;52.164;10.530;2023-05-10T10:41:09;2.55;;;2.03;;
10244;SDS011;5167;52.164;10.530;2023-05-10T10:43:36;2.88;;;2.05;;
10244;SDS011;5167;52.164;10.530;2023-05-10T10:46:09;3.33;;;2.17;;
10244;SDS011;5167;52.164;10.530;2023-05-10T10:48:35;3.38;;;2.40;;
10244;SDS011;5167;52.164;10.530;2023-05-10T10:51:00;5.80;;;2.42;;
10244;SDS011;5167;52.164;10.530;2023-05-10T10:53:27;7.00;;;2.58;;
10244;SDS011;5167;52.164;10.530;2023-05-10T10:56:02;2.60;;;2.40;;
10244;SDS011;5167;52.164;10.530;2023-05-10T10:58:34;7.55;;;3.17;;
10244;SDS011;5167;52.164;10.530;2023-05-10T11:03:54;5.07;;;3.47;;
10244;SDS011;5167;52.164;10.530;2023-05-10T11:06:29;3.78;;;3.00;;
10244;SDS011;5167;52.164;10.530;2023-05-10T11:08:59;2.42;;;2.20;;
10244;SDS011;5167;52.164;10.530;2023-05-10T11:11:34;1.35;;;1.25;;
10244;SDS011;5167;52.164;10.530;2023-05-10T11:14:04;2.13;;;1.50;;
10244;SDS011;5167;52.164;10.530;2023-05-10T11:16:43;1.30;;;1.20;;
10244;SDS011;5167;52.164;10.530;2023-05-10T11:19:13;1.35;;;1.02;;
10244;SDS011;5167;52.164;10.530;2023-05-10T11:21:50;1.02;;;1.02;;
10244;SDS011;5167;52.164;10.530;2023-05-10T11:24:36;1.75;;;1.00;;
10244;SDS011;5167;52.164;10.530;2023-05-10T11:27:02;1.27;;;1.02;;
10244;SDS011;5167;52.164;10.530;2023-05-10T11:29:27;3.13;;;1.13;;
10244;SDS011;5167;52.164;10.530;2023-05-10T11:31:53;1.05;;;1.05;;
10244;SDS011;5167;52.164;10.530;2023-05-10T11:34:29;1.10;;;1.10;;
10244;SDS011;5167;52.164;10.530;2023-05-10T11:36:58;1.35;;;1.30;;
10244;SDS011;5167;52.164;10.530;2023-05-10T11:39:28;1.40;;;1.30;;
10244;SDS011;5167;52.164;10.530;2023-05-10T11:41:54;2.80;;;1.67;;
10244;SDS011;5167;52.164;10.530;2023-05-10T11:44:20;1.60;;;1.50;;
10244;SDS011;5167;52.164;10.530;2023-05-10T11:46:45;1.65;;;1.55;;
10244;SDS011;5167;52.164;10.530;2023-05-10T11:49:11;1.40;;;1.30;;
10244;SDS011;5167;52.164;10.530;2023-05-10T11:51:38;1.40;;;1.30;;
10244;SDS011;5167;52.164;10.530;2023-05-10T11:54:08;2.30;;;1.60;;
10244;SDS011;5167;52.164;10.530;2023-05-10T11:56:34;1.60;;;1.50;;
10244;SDS011;5167;52.164;10.530;2023-05-10T11:59:00;1.50;;;1.40;;
10244;SDS011;5167;52.164;10.530;2023-05-10T12:01:27;3.25;;;1.33;;
10244;SDS011;5167;52.164;10.530;2023-05-10T12:03:54;1.60;;;1.50;;
10244;SDS011;5167;52.164;10.530;2023-05-10T12:06:31;1.17;;;1.17;;
10244;SDS011;5167;52.164;10.530;2023-05-10T12:09:01;1.60;;;1.50;;
10244;SDS011;5167;52.164;10.530;2023-05-10T12:11:30;1.65;;;1.55;;
10244;SDS011;5167;52.164;10.530;2023-05-10T12:13:56;1.60;;;1.50;;
10244;SDS011;5167;52.164;10.530;2023-05-10T12:16:22;1.35;;;1.25;;
10244;SDS011;5167;52.164;10.530;2023-05-10T12:18:50;2.15;;;1.58;;
10244;SDS011;5167;52.164;10.530;2023-05-10T12:21:16;1.48;;;1.38;;
10244;SDS011;5167;52.164;10.530;2023-05-10T12:23:43;1.40;;;1.30;;
10244;SDS011;5167;52.164;10.530;2023-05-10T12:26:10;1.10;;;1.00;;
10244;SDS011;5167;52.164;10.530;2023-05-10T12:28:36;1.33;;;1.17;;
10244;SDS011;5167;52.164;10.530;2023-05-10T12:31:02;1.70;;;1.40;;
10244;SDS011;5167;52.164;10.530;2023-05-10T12:33:34;1.23;;;1.08;;
10244;SDS011;5167;52.164;10.530;2023-05-10T12:36:07;1.50;;;1.40;;
10244;SDS011;5167;52.164;10.530;2023-05-10T12:38:40;1.58;;;1.48;;
10244;SDS011;5167;52.164;10.530;2023-05-10T12:41:15;1.63;;;1.40;;
10244;SDS011;5167;52.164;10.530;2023-05-10T12:43:41;2.22;;;1.55;;
10244;SDS011;5167;52.164;10.530;2023-05-10T12:46:07;1.80;;;1.70;;
10244;SDS011;5167;52.164;10.530;2023-05-10T12:48:34;1.90;;;1.80;;
10244;SDS011;5167;52.164;10.530;2023-05-10T12:51:01;2.83;;;1.63;;
10244;SDS011;5167;52.164;10.530;2023-05-10T12:53:28;4.25;;;1.90;;
10244;SDS011;5167;52.164;10.530;2023-05-10T12:55:53;4.97;;;1.80;;
10244;SDS011;5167;52.164;10.530;2023-05-10T12:58:19;3.80;;;1.88;;
10244;SDS011;5167;52.164;10.530;2023-05-10T13:00:45;2.25;;;1.88;;
10244;SDS011;5167;52.164;10.530;2023-05-10T13:03:10;5.85;;;2.15;;
10244;SDS011;5167;52.164;10.530;2023-05-10T13:05:36;4.07;;;2.15;;
10244;SDS011;5167;52.164;10.530;2023-05-10T13:08:02;4.00;;;2.00;;
10244;SDS011;5167;52.164;10.530;2023-05-10T13:10:29;4.68;;;2.83;;
10244;SDS011;5167;52.164;10.530;2023-05-10T13:12:56;2.75;;;2.05;;
10244;SDS011;5167;52.164;10.530;2023-05-10T13:15:22;2.88;;;2.05;;
10244;SDS011;5167;52.164;10.530;2023-05-10T13:17:48;9.10;;;3.17;;
10244;SDS011;5167;52.164;10.530;2023-05-10T13:20:13;2.17;;;1.98;;
10244;SDS011;5167;52.164;10.530;2023-05-10T13:22:39;2.25;;;1.80;;
10244;SDS011;5167;52.164;10.530;2023-05-10T13:25:05;2.75;;;1.88;;
10244;SDS011;5167;52.164;10.530;2023-05-10T13:27:31;1.98;;;1.88;;
10244;SDS011;5167;52.164;10.530;2023-05-10T13:29:57;5.18;;;1.80;;
10244;SDS011;5167;52.164;10.530;2023-05-10T13:32:24;2.88;;;1.80;;
10244;SDS011;5167;52.164;10.530;2023-05-10T13:34:50;3.38;;;1.75;;
10244;SDS011;5167;52.164;10.530;2023-05-10T13:37:16;2.30;;;2.10;;
10244;SDS011;5167;52.164;10.530;2023-05-10T13:39:41;3.90;;;2.13;;
10244;SDS011;5167;52.164;10.530;2023-05-10T13:42:07;2.50;;;2.30;;
10244;SDS011;5167;52.164;10.530;2023-05-10T13:44:32;2.50;;;2.13;;
10244;SDS011;5167;52.164;10.530;2023-05-10T13:46:58;2.78;;;2.40;;
10244;SDS011;5167;52.164;10.530;2023-05-10T13:49:24;3.53;;;2.28;;
10244;SDS011;5167;52.164;10.530;2023-05-10T13:51:50;2.45;;;2.10;;
10244;SDS011;5167;52.164;10.530;2023-05-10T13:54:15;4.93;;;2.28;;
10244;SDS011;5167;52.164;10.530;2023-05-10T13:56:44;5.47;;;2.65;;
10244;SDS011;5167;52.164;10.530;2023-05-10T13:59:10;4.55;;;2.70;;
10244;SDS011;5167;52.164;10.530;2023-05-10T14:01:35;3.78;;;2.60;;
10244;SDS011;5167;52.164;10.530;2023-05-10T14:04:01;3.28;;;2.40;;
10244;SDS011;5167;52.164;10.530;2023-05-10T14:06:26;4.80;;;2.88;;
10244;SDS011;5167;52.164;10.530;2023-05-10T14:08:52;2.58;;;2.35;;
10244;SDS011;5167;52.164;10.530;2023-05-10T14:11:18;6.35;;;3.05;;
10244;SDS011;5167;52.164;10.530;2023-05-10T14:13:44;3.20;;;2.90;;
10244;SDS011;5167;52.164;10.530;2023-05-10T14:16:10;3.42;;;3.08;;
10244;SDS011;5167;52.164;10.530;2023-05-10T14:18:36;3.85;;;2.60;;
10244;SDS011;5167;52.164;10.530;2023-05-10T14:21:02;5.65;;;2.90;;
10244;SDS011;5167;52.164;10.530;2023-05-10T14:23:28;3.90;;;2.85;;
10244;SDS011;5167;52.164;10.530;2023-05-10T14:25:54;2.80;;;2.60;;
10244;SDS011;5167;52.164;10.530;2023-05-10T14:28:20;4.40;;;2.67;;
10244;SDS011;5167;52.164;10.530;2023-05-10T14:30:47;2.58;;;2.30;;
10244;SDS011;5167;52.164;10.530;2023-05-10T14:33:13;2.55;;;2.35;;
10244;SDS011;5167;52.164;10.530;2023-05-10T14:38:31;3.20;;;2.40;;
10244;SDS011;5167;52.164;10.530;2023-05-10T14:40:56;4.70;;;2.35;;
10244;SDS011;5167;52.164;10.530;2023-05-10T14:43:22;2.17;;;1.92;;
10244;SDS011;5167;52.164;10.530;2023-05-10T14:45:48;2.33;;;2.00;;
10244;SDS011;5167;52.164;10.530;2023-05-10T14:48:13;5.38;;;1.92;;
10244;SDS011;5167;52.164;10.530;2023-05-10T14:50:42;1.95;;;1.70;;
10244;SDS011;5167;52.164;10.530;2023-05-10T14:53:08;2.47;;;1.95;;
10244;SDS011;5167;52.164;10.530;2023-05-10T14:55:33;2.47;;;1.83;;
10244;SDS011;5167;52.164;10.530;2023-05-10T14:58:00;2.20;;;2.00;;
10244;SDS011;5167;52.164;10.530;2023-05-10T15:00:27;6.72;;;1.88;;
10244;SDS011;5167;52.164;10.530;2023-05-10T15:02:53;1.95;;;1.77;;
10244;SDS011;5167;52.164;10.530;2023-05-10T15:05:19;2.45;;;2.25;;
10244;SDS011;5167;52.164;10.530;2023-05-10T15:07:44;1.92;;;1.83;;
10244;SDS011;5167;52.164;10.530;2023-05-10T15:10:10;1.95;;;1.83;;
10244;SDS011;5167;52.164;10.530;2023-05-10T15:12:36;1.70;;;1.55;;
10244;SDS011;5167;52.164;10.530;2023-05-10T15:15:03;1.90;;;1.40;;
10244;SDS011;5167;52.164;10.530;2023-05-10T15:17:29;3.35;;;1.52;;
10244;SDS011;5167;52.164;10.530;2023-05-10T15:19:55;2.17;;;1.85;;
10244;SDS011;5167;52.164;10.530;2023-05-10T15:22:20;2.55;;;1.50;;
10244;SDS011;5167;52.164;10.530;2023-05-10T15:24:46;2.03;;;1.83;;
10244;SDS011;5167;52.164;10.530;2023-05-10T15:27:12;1.73;;;1.63;;
10244;SDS011;5167;52.164;10.530;2023-05-10T15:29:38;1.95;;;1.85;;